CET,Max TemperatureF,Mean TemperatureF,Min TemperatureF,Max Dew PointF,MeanDew PointF,Min DewpointF,Max Humidity, Mean Humidity, Min Humidity, Max Sea Level PressureIn, Mean Sea Level PressureIn, Min Sea Level PressureIn, Max VisibilityMiles, Mean VisibilityMiles, Min VisibilityMiles, Max Wind SpeedMPH, Mean Wind SpeedMPH, Max Gust SpeedMPH,PrecipitationIn, CloudCover, Events, WindDirDegrees
2012-12-1,46,44,42,43,43,41,100,97,87,29.89,29.83,29.74,6,4,2,7,5,,0.00,5,Rain,270
2012-12-2,44,40,33,43,40,34,100,94,81,29.86,29.79,29.71,5,4,2,12,7,,0.00,5,Rain,267
2012-12-3,46,36,26,36,30,27,100,80,50,30.01,29.94,29.86,4,4,3,10,5,,0.00,,Fog,273
2012-12-4,39,36,32,36,32,28,93,84,70,29.89,29.67,29.53,6,6,4,10,6,,0.00,5,Rain,340
2012-12-5,44,37,30,36,30,25,100,84,61,29.71,29.62,29.56,6,6,6,8,5,,0.00,3,,360
2012-12-6,44,36,28,36,28,14,93,76,41,29.95,29.83,29.71,6,5,4,12,5,,0.00,3,,347
2012-12-7,39,36,32,32,25,14,100,69,41,29.98,29.84,29.71,6,3,0,12,8,,0.00,5,Fog-Snow,50
2012-12-8,32,26,15,32,28,16,100,100,93,30.06,29.79,29.62,2,1,0,14,6,,0.00,5,Fog,290
2012-12-9,33,24,15,30,25,16,100,97,87,30.15,30.07,29.98,6,2,0,8,4,,0.00,1,Fog,324
2012-12-10,35,29,23,27,24,19,100,85,70,29.92,29.82,29.77,6,4,1,7,5,,0.00,1,,22
2012-12-11,42,32,21,28,20,10,93,65,33,30.09,29.93,29.86,,,,16,6,,0.00,,,357
2012-12-12,37,30,24,25,18,9,80,60,35,30.21,30.14,30.09,6,6,6,8,4,,0.00,1,,358
2012-12-13,33,30,28,28,24,18,93,73,60,30.21,30.19,30.18,6,5,1,8,4,,0.00,5,Snow,319
2012-12-14,32,31,30,32,31,30,100,100,100,30.18,30.11,30.04,1,0,0,7,3,,0.00,6,Fog-Rain-Snow,280
2012-12-15,33,32,32,34,33,32,100,100,100,30.01,29.93,29.89,1,0,0,15,7,,0.00,6,Fog-Rain,284
2012-12-16,37,34,30,37,33,30,100,100,100,30.01,29.97,29.95,1,0,0,6,3,,0.00,6,Fog,306
2012-12-17,35,34,32,36,33,32,100,100,100,29.92,29.88,29.83,2,0,0,9,4,,0.00,6,Fog,266
2012-12-18,33,32,30,34,33,30,100,100,100,30.04,29.91,29.86,1,0,0,10,6,,0.00,6,Fog,294
2012-12-19,41,32,24,39,31,25,100,99,87,30.21,30.15,30.04,5,1,0,7,3,,0.00,3,Fog,299
2012-12-20,39,32,26,36,31,25,100,92,75,30.21,30.12,30.01,6,3,1,8,4,,0.00,4,Fog-Rain,288
2012-12-21,39,34,30,37,35,30,100,96,87,30.04,29.96,29.92,4,2,0,7,3,,0.00,5,Fog-Rain,300
2012-12-22,33,30,28,34,31,28,100,100,100,30.18,30.13,30.04,1,0,0,9,5,,0.00,6,Fog,276
2012-12-23,33,30,28,34,31,28,100,100,100,30.18,30.12,30.06,0,0,0,7,4,,0.00,6,Fog,298
2012-12-24,41,34,28,39,36,28,100,98,93,30.24,30.21,30.18,2,2,1,6,3,,0.00,6,Fog,84
2012-12-25,42,40,39,43,40,39,100,99,93,30.21,30.13,30.09,1,1,0,5,2,,0.00,6,Fog,275
2012-12-26,44,42,41,43,42,41,100,99,93,30.12,30.02,29.98,3,1,0,13,4,,0.00,6,Fog-Rain,272
2012-12-27,44,42,39,41,40,37,100,94,87,30.15,30.07,29.98,6,4,1,9,5,,0.00,6,,268
2012-12-28,59,47,35,41,35,28,100,70,36,30.39,30.17,30.04,6,2,0,18,10,,0.00,5,Fog,6
2012-12-29,50,42,32,41,34,28,100,74,50,30.42,30.34,30.24,6,6,5,12,7,,0.00,1,,33
2012-12-30,46,37,28,37,32,27,100,85,66,30.30,30.23,30.18,5,4,4,7,4,,0.00,,,343
2012-12-31,50,39,28,37,32,27,100,81,54,30.36,30.28,30.15,,,,7,4,,0.00,,,347